createdAt,value
2023-05-10T00:02:01.657Z,96735.89
2023-05-10T00:04:32.316Z,96739.08
2023-05-10T00:07:02.986Z,96741.31
2023-05-10T00:09:33.327Z,96741.41
2023-05-10T00:12:03.582Z,96735.81
2023-05-10T00:14:34.264Z,96730.67
2023-05-10T00:17:04.477Z,96730.01
2023-05-10T00:19:34.748Z,96731.23
2023-05-10T00:22:05.089Z,96736.83
2023-05-10T00:24:35.361Z,96734.52
2023-05-10T00:27:06.212Z,96739.55
2023-05-10T00:29:36.572Z,96737.34
2023-05-10T00:32:10.723Z,96742.33
2023-05-10T00:34:41.322Z,96740.23
2023-05-10T00:37:11.680Z,96742.74
2023-05-10T00:39:42.289Z,96740.08
2023-05-10T00:42:12.897Z,96740.67
2023-05-10T00:44:43.127Z,96733.41
2023-05-10T00:47:13.605Z,96739.92
2023-05-10T00:49:44.253Z,96747.37
2023-05-10T00:52:14.527Z,96746.63
2023-05-10T00:54:45.008Z,96746.25
2023-05-10T00:57:15.623Z,96752.34
2023-05-10T00:59:46.338Z,96750.02
2023-05-10T01:02:17.397Z,96750.73
2023-05-10T01:04:48.436Z,96750.25
2023-05-10T01:07:18.976Z,96753.95
2023-05-10T01:09:49.638Z,96759.51
2023-05-10T01:12:20.276Z,96761.60
2023-05-10T01:14:50.886Z,96763.67
2023-05-10T01:17:21.879Z,96762.94
2023-05-10T01:19:52.285Z,96757.17
2023-05-10T01:22:45.367Z,96753.73
2023-05-10T01:25:28.467Z,96755.33
2023-05-10T01:28:16.276Z,96759.78
2023-05-10T01:31:13.326Z,96760.33
2023-05-10T01:33:49.941Z,96759.86
2023-05-10T01:36:27.869Z,96761.20
2023-05-10T01:39:04.595Z,96762.39
2023-05-10T01:41:37.590Z,96763.88
2023-05-10T01:44:14.638Z,96766.80
2023-05-10T01:46:43.841Z,96767.79
2023-05-10T01:49:20.769Z,96768.83
2023-05-10T01:51:55.828Z,96771.30
2023-05-10T01:54:27.390Z,96773.05
2023-05-10T01:57:04.220Z,96776.94
2023-05-10T01:59:37.295Z,96783.36
2023-05-10T02:02:08.777Z,96784.45
2023-05-10T02:04:40.482Z,96784.55
2023-05-10T02:07:12.412Z,96778.41
2023-05-10T02:09:43.801Z,96774.66
2023-05-10T02:12:16.217Z,96772.87
2023-05-10T02:14:48.473Z,96781.89
2023-05-10T02:17:20.729Z,96786.11
2023-05-10T02:19:51.226Z,96785.98
2023-05-10T02:22:22.297Z,96787.13
2023-05-10T02:24:53.184Z,96787.58
2023-05-10T02:27:24.004Z,96783.03
2023-05-10T02:29:55.133Z,96784.29
2023-05-10T02:32:26.925Z,96787.48
2023-05-10T02:34:57.621Z,96788.48
2023-05-10T02:37:28.571Z,96786.61
2023-05-10T02:39:59.705Z,96781.55
2023-05-10T02:42:30.756Z,96782.73
2023-05-10T02:45:04.460Z,96782.58
2023-05-10T02:47:35.028Z,96782.50
2023-05-10T02:50:06.272Z,96778.13
2023-05-10T02:52:42.173Z,96780.98
2023-05-10T02:55:15.803Z,96785.52
2023-05-10T02:57:49.789Z,96791.33
2023-05-10T03:00:20.627Z,96785.69
2023-05-10T03:02:51.406Z,96787.23
2023-05-10T03:05:23.033Z,96787.91
2023-05-10T03:07:53.666Z,96785.54
2023-05-10T03:10:26.418Z,96780.16
2023-05-10T03:13:08.827Z,96776.75
2023-05-10T03:15:49.899Z,96781.94
2023-05-10T03:18:23.428Z,96776.67
2023-05-10T03:20:58.508Z,96777.26
2023-05-10T03:23:32.551Z,96780.59
2023-05-10T03:26:03.317Z,96781.47
2023-05-10T03:28:34.830Z,96779.91
2023-05-10T03:31:05.532Z,96779.39
2023-05-10T03:33:36.178Z,96777.41
2023-05-10T03:36:08.366Z,96776.85
2023-05-10T03:38:38.906Z,96775.46
2023-05-10T03:41:09.181Z,96776.19
2023-05-10T03:43:39.589Z,96775.46
2023-05-10T03:46:10.332Z,96776.34
2023-05-10T03:48:40.553Z,96773.98
2023-05-10T03:51:10.999Z,96766.36
2023-05-10T03:53:41.652Z,96762.81
2023-05-10T03:56:14.381Z,96762.86
2023-05-10T03:58:44.794Z,96763.55
2023-05-10T04:01:16.716Z,96761.65
2023-05-10T04:03:47.728Z,96760.70
2023-05-10T04:06:18.206Z,96767.05
2023-05-10T04:08:48.936Z,96764.21
2023-05-10T04:11:19.077Z,96766.52
2023-05-10T04:13:49.511Z,96762.27
2023-05-10T04:16:19.996Z,96760.11
2023-05-10T04:18:50.324Z,96759.10
2023-05-10T04:21:20.505Z,96756.05
2023-05-10T04:23:50.753Z,96757.48
2023-05-10T04:26:21.115Z,96747.17
2023-05-10T04:28:52.049Z,96750.45
2023-05-10T04:31:22.463Z,96744.82
2023-05-10T04:33:53.075Z,96741.74
2023-05-10T04:36:23.352Z,96742.88
2023-05-10T04:38:54.051Z,96748.35
2023-05-10T04:41:24.964Z,96751.81
2023-05-10T04:43:55.221Z,96744.28
2023-05-10T04:46:25.683Z,96744.64
2023-05-10T04:48:56.015Z,96743.15
2023-05-10T04:51:26.638Z,96746.84
2023-05-10T04:54:06.214Z,96740.88
2023-05-10T04:56:37.723Z,96747.96
2023-05-10T04:59:07.914Z,96744.02
2023-05-10T05:01:38.407Z,96743.24
2023-05-10T05:04:08.896Z,96739.41
2023-05-10T05:06:39.176Z,96733.55
2023-05-10T05:09:10.902Z,96730.77
2023-05-10T05:11:41.370Z,96730.34
2023-05-10T05:14:12.434Z,96725.58
2023-05-10T05:16:43.243Z,96723.45
2023-05-10T05:19:13.948Z,96714.98
2023-05-10T05:21:44.252Z,96717.20
2023-05-10T05:24:14.656Z,96713.85
2023-05-10T05:26:45.592Z,96712.37
2023-05-10T05:29:17.267Z,96712.49
2023-05-10T05:31:49.966Z,96712.91
2023-05-10T05:34:22.208Z,96709.60
2023-05-10T05:36:52.447Z,96704.27
2023-05-10T05:39:23.474Z,96704.98
2023-05-10T05:41:54.060Z,96699.48
2023-05-10T05:44:24.474Z,96700.74
2023-05-10T05:46:58.722Z,96692.08
2023-05-10T05:49:32.184Z,96693.92
2023-05-10T05:52:03.054Z,96691.42
2023-05-10T05:54:33.784Z,96689.94
2023-05-10T05:57:04.136Z,96690.44
2023-05-10T05:59:34.496Z,96687.27
2023-05-10T06:02:05.244Z,96689.29
2023-05-10T06:04:35.922Z,96687.52
2023-05-10T06:07:06.637Z,96690.67
2023-05-10T06:09:37.249Z,96687.41
2023-05-10T06:12:07.937Z,96680.36
2023-05-10T06:14:38.173Z,96680.39
2023-05-10T06:17:09.059Z,96672.37
2023-05-10T06:19:39.771Z,96671.88
2023-05-10T06:22:10.313Z,96665.16
2023-05-10T06:24:40.693Z,96663.89
2023-05-10T06:27:11.008Z,96665.02
2023-05-10T06:29:41.110Z,96661.39
2023-05-10T06:32:11.310Z,96663.54
2023-05-10T06:34:41.722Z,96667.96
2023-05-10T06:37:12.071Z,96667.13
2023-05-10T06:39:42.345Z,96668.23
2023-05-10T06:42:12.781Z,96669.41
2023-05-10T06:44:44.242Z,96659.20
2023-05-10T06:47:14.498Z,96659.70
2023-05-10T06:49:44.983Z,96657.63
2023-05-10T06:52:15.400Z,96651.35
2023-05-10T06:54:45.845Z,96650.36
2023-05-10T06:57:27.718Z,96651.60
2023-05-10T07:00:01.761Z,96651.92
2023-05-10T07:02:32.689Z,96651.44
2023-05-10T07:05:06.119Z,96654.96
2023-05-10T07:07:39.197Z,96653.15
2023-05-10T07:10:11.980Z,96647.33
2023-05-10T07:12:42.569Z,96647.35
2023-05-10T07:15:13.727Z,96645.25
2023-05-10T07:17:45.902Z,96646.35
2023-05-10T07:20:16.874Z,96644.36
2023-05-10T07:22:47.211Z,96645.44
2023-05-10T07:25:17.827Z,96640.00
2023-05-10T07:27:49.188Z,96643.07
2023-05-10T07:30:19.903Z,96640.12
2023-05-10T07:32:50.217Z,96640.86
2023-05-10T07:35:20.972Z,96631.06
2023-05-10T07:37:51.133Z,96631.08
2023-05-10T07:40:22.040Z,96625.52
2023-05-10T07:42:52.612Z,96624.25
2023-05-10T07:45:24.000Z,96631.14
2023-05-10T07:47:54.834Z,96617.97
2023-05-10T07:50:25.339Z,96620.66
2023-05-10T07:52:56.170Z,96618.47
2023-05-10T07:55:26.914Z,96619.02
2023-05-10T07:57:57.146Z,96614.21
2023-05-10T08:00:27.309Z,96609.23
2023-05-10T08:02:57.611Z,96602.80
2023-05-10T08:05:28.269Z,96600.13
2023-05-10T08:08:00.185Z,96588.02
2023-05-10T08:10:30.743Z,96585.89
2023-05-10T08:13:01.382Z,96581.20
2023-05-10T08:15:31.531Z,96576.04
2023-05-10T08:18:01.996Z,96577.05
2023-05-10T08:20:32.838Z,96571.11
2023-05-10T08:23:03.216Z,96568.20
2023-05-10T08:25:33.878Z,96566.59
2023-05-10T08:28:04.753Z,96567.75
2023-05-10T08:30:35.023Z,96567.09
2023-05-10T08:33:05.904Z,96560.45
2023-05-10T08:35:36.459Z,96556.58
2023-05-10T08:38:06.665Z,96548.08
2023-05-10T08:40:37.725Z,96546.23
2023-05-10T08:43:10.575Z,96541.60
2023-05-10T08:45:42.712Z,96543.36
2023-05-10T08:48:13.486Z,96536.61
2023-05-10T08:50:44.228Z,96535.61
2023-05-10T08:53:15.299Z,96530.66
2023-05-10T08:55:45.742Z,96532.52
2023-05-10T08:58:16.368Z,96530.14
2023-05-10T09:00:46.892Z,96528.66
2023-05-10T09:03:17.148Z,96532.05
2023-05-10T09:05:47.522Z,96523.94
2023-05-10T09:08:18.111Z,96526.04
2023-05-10T09:10:48.620Z,96520.14
2023-05-10T09:13:19.943Z,96520.12
2023-05-10T09:15:51.195Z,96520.67
2023-05-10T09:18:21.698Z,96517.27
2023-05-10T09:20:52.030Z,96516.31
2023-05-10T09:23:23.004Z,96519.58
2023-05-10T09:26:06.901Z,96519.55
2023-05-10T09:28:51.337Z,96515.00
2023-05-10T09:31:21.816Z,96514.55
2023-05-10T09:33:53.169Z,96514.20
2023-05-10T09:36:23.487Z,96507.19
2023-05-10T09:38:56.925Z,96499.44
2023-05-10T09:41:27.448Z,96502.02
2023-05-10T09:43:59.118Z,96497.70
2023-05-10T09:46:29.416Z,96500.48
2023-05-10T09:48:59.783Z,96498.04
2023-05-10T09:51:30.323Z,96493.22
2023-05-10T09:54:13.265Z,96492.34
2023-05-10T09:56:43.913Z,96488.81
2023-05-10T09:59:14.643Z,96481.91
2023-05-10T10:01:46.325Z,96480.95
2023-05-10T10:04:17.244Z,96478.45
2023-05-10T10:06:48.159Z,96478.95
2023-05-10T10:09:19.382Z,96478.03
2023-05-10T10:11:49.589Z,96463.48
2023-05-10T10:14:22.057Z,96459.41
2023-05-10T10:17:06.644Z,96450.84
2023-05-10T10:19:40.826Z,96446.52
2023-05-10T10:22:12.629Z,96440.89
2023-05-10T10:24:43.674Z,96437.45
2023-05-10T10:27:21.622Z,96435.45
2023-05-10T10:30:02.230Z,96436.09
2023-05-10T10:32:49.899Z,96430.70
2023-05-10T10:35:20.469Z,96434.97
2023-05-10T10:37:52.821Z,96433.31
2023-05-10T10:40:31.889Z,96435.41
2023-05-10T10:43:25.596Z,96434.82
2023-05-10T10:46:15.913Z,96437.58
2023-05-10T10:48:52.402Z,96439.42
2023-05-10T10:51:22.746Z,96441.55
2023-05-10T10:53:52.970Z,96438.39
2023-05-10T10:56:25.021Z,96432.30
2023-05-10T10:58:57.951Z,96436.24
2023-05-10T11:01:35.909Z,96430.41
2023-05-10T11:04:21.666Z,96421.79
2023-05-10T11:06:52.080Z,96411.27
2023-05-10T11:09:27.487Z,96408.96
2023-05-10T11:11:59.133Z,96405.25
2023-05-10T11:14:29.322Z,96410.70
2023-05-10T11:16:59.514Z,96408.48
2023-05-10T11:19:31.282Z,96406.65
2023-05-10T11:22:15.800Z,96397.40
2023-05-10T11:24:59.673Z,96396.96
2023-05-10T11:27:29.951Z,96404.27
2023-05-10T11:30:00.313Z,96403.98
2023-05-10T11:32:30.795Z,96401.66
2023-05-10T11:35:01.103Z,96410.53
2023-05-10T11:37:35.172Z,96415.35
2023-05-10T11:40:06.650Z,96416.28
2023-05-10T11:42:36.960Z,96419.13
2023-05-10T11:45:09.810Z,96415.54
2023-05-10T11:47:42.637Z,96411.62
2023-05-10T11:50:15.429Z,96411.52
2023-05-10T11:52:46.493Z,96416.38
2023-05-10T11:55:16.719Z,96411.30
2023-05-10T11:57:47.367Z,96405.02
2023-05-10T12:00:18.503Z,96400.41
2023-05-10T12:02:51.668Z,96395.81
2023-05-10T12:05:23.245Z,96395.30
2023-05-10T12:07:53.489Z,96396.78
2023-05-10T12:10:28.752Z,96404.57
2023-05-10T12:12:59.458Z,96404.13
2023-05-10T12:15:30.929Z,96402.27
2023-05-10T12:18:02.038Z,96392.52
2023-05-10T12:20:32.645Z,96396.42
2023-05-10T12:23:04.620Z,96389.59
2023-05-10T12:25:36.647Z,96394.82
2023-05-10T12:28:09.229Z,96394.05
2023-05-10T12:30:39.882Z,96393.50
2023-05-10T12:33:15.407Z,96393.49
2023-05-10T12:35:50.166Z,96399.89
2023-05-10T12:38:31.939Z,96396.71
2023-05-10T12:41:04.382Z,96401.11
2023-05-10T12:43:35.047Z,96396.69
2023-05-10T12:46:10.240Z,96391.69
2023-05-10T12:48:41.803Z,96381.20
2023-05-10T12:51:14.041Z,96371.05
2023-05-10T12:53:48.734Z,96370.44
2023-05-10T12:56:19.798Z,96370.02
2023-05-10T12:58:49.963Z,96374.81
2023-05-10T13:01:20.362Z,96375.32
2023-05-10T13:03:51.316Z,96378.54
2023-05-10T13:06:21.501Z,96385.30
2023-05-10T13:08:52.486Z,96391.86
2023-05-10T13:11:23.071Z,96404.29
2023-05-10T13:13:53.336Z,96410.36
2023-05-10T13:16:24.293Z,96410.54
2023-05-10T13:18:55.683Z,96404.66
2023-05-10T13:21:27.791Z,96403.32
2023-05-10T13:23:59.507Z,96403.52
2023-05-10T13:26:31.238Z,96402.37
2023-05-10T13:29:01.718Z,96403.20
2023-05-10T13:31:32.038Z,96400.14
2023-05-10T13:34:02.413Z,96399.02
2023-05-10T13:36:34.356Z,96396.04
2023-05-10T13:39:05.992Z,96395.37
2023-05-10T13:41:42.526Z,96395.09
2023-05-10T13:44:15.896Z,96395.38
2023-05-10T13:46:52.634Z,96395.09
2023-05-10T13:49:30.553Z,96397.96
2023-05-10T13:52:37.212Z,96395.16
2023-05-10T13:55:08.724Z,96396.69
2023-05-10T13:57:51.818Z,96399.79
2023-05-10T14:00:32.876Z,96394.74
2023-05-10T14:03:17.123Z,96396.35
2023-05-10T14:05:52.301Z,96391.48
2023-05-10T14:08:23.248Z,96396.52
2023-05-10T14:11:08.200Z,96397.98
2023-05-10T14:13:42.481Z,96404.29
2023-05-10T14:16:25.412Z,96403.77
2023-05-10T14:18:56.948Z,96404.69
2023-05-10T14:21:28.724Z,96403.86
2023-05-10T14:23:58.926Z,96403.61
2023-05-10T14:26:29.643Z,96407.77
2023-05-10T14:29:00.121Z,96414.76
2023-05-10T14:31:31.799Z,96416.31
2023-05-10T14:34:02.417Z,96415.91
2023-05-10T14:36:33.015Z,96415.02
2023-05-10T14:39:03.993Z,96418.60
2023-05-10T14:41:36.638Z,96421.77
2023-05-10T14:44:07.325Z,96424.67
2023-05-10T14:46:37.502Z,96431.23
2023-05-10T14:49:08.757Z,96434.28
2023-05-10T14:51:39.073Z,96432.29
2023-05-10T14:56:56.841Z,96445.00
2023-05-10T14:59:30.194Z,96451.27
2023-05-10T15:02:01.247Z,96457.80
2023-05-10T15:05:03.346Z,96466.94
2023-05-10T15:07:34.768Z,96468.07
2023-05-10T15:10:06.715Z,96467.39
2023-05-10T15:12:37.029Z,96465.83
2023-05-10T15:15:10.682Z,96471.79
2023-05-10T15:17:42.478Z,96474.41
2023-05-10T15:20:17.759Z,96479.67
2023-05-10T15:22:54.399Z,96481.78
2023-05-10T15:25:38.749Z,96483.77
2023-05-10T15:28:13.501Z,96485.68
2023-05-10T15:30:45.882Z,96485.66
2023-05-10T15:33:18.186Z,96491.06
2023-05-10T15:35:48.955Z,96490.41
2023-05-10T15:38:19.598Z,96491.75
2023-05-10T15:40:50.205Z,96492.94
2023-05-10T15:43:21.879Z,96497.44
2023-05-10T15:45:52.393Z,96502.55
2023-05-10T15:48:23.836Z,96511.45
2023-05-10T15:50:54.143Z,96519.36
2023-05-10T15:53:28.288Z,96525.50
2023-05-10T15:56:00.383Z,96535.19
2023-05-10T15:58:33.854Z,96539.20
2023-05-10T16:01:08.959Z,96540.01
2023-05-10T16:03:40.008Z,96540.92
2023-05-10T16:06:11.114Z,96546.23
2023-05-10T16:08:46.367Z,96554.38
2023-05-10T16:11:16.737Z,96564.44
2023-05-10T16:13:49.678Z,96565.00
2023-05-10T16:16:20.030Z,96564.63
2023-05-10T16:18:51.305Z,96569.24
2023-05-10T16:21:24.318Z,96571.99
2023-05-10T16:23:54.845Z,96578.58
2023-05-10T16:26:25.392Z,96584.05
2023-05-10T16:28:55.870Z,96595.05
2023-05-10T16:31:26.217Z,96607.64
2023-05-10T16:33:56.989Z,96608.15
2023-05-10T16:36:27.533Z,96610.09
2023-05-10T16:38:58.221Z,96615.36
2023-05-10T16:41:29.007Z,96621.88
2023-05-10T16:43:59.271Z,96619.59
2023-05-10T16:46:29.680Z,96618.36
2023-05-10T16:49:00.585Z,96622.64
2023-05-10T16:51:31.371Z,96632.68
2023-05-10T16:54:02.441Z,96642.74
2023-05-10T16:56:33.281Z,96641.81
2023-05-10T16:59:05.791Z,96642.18
2023-05-10T17:01:37.449Z,96640.69
2023-05-10T17:04:07.772Z,96642.56
2023-05-10T17:06:38.380Z,96643.54
2023-05-10T17:09:09.020Z,96652.16
2023-05-10T17:11:39.494Z,96664.32
2023-05-10T17:14:10.298Z,96682.48
2023-05-10T17:16:40.693Z,96697.09
2023-05-10T17:19:11.270Z,96711.26
2023-05-10T17:21:41.854Z,96717.43
2023-05-10T17:24:12.703Z,96724.48
2023-05-10T17:26:42.946Z,96724.33
2023-05-10T17:29:13.823Z,96724.23
2023-05-10T17:31:44.427Z,96720.24
2023-05-10T17:34:16.055Z,96721.83
2023-05-10T17:36:46.587Z,96724.33
2023-05-10T17:39:16.745Z,96735.13
2023-05-10T17:41:47.028Z,96740.23
2023-05-10T17:44:17.283Z,96742.74
2023-05-10T17:46:48.044Z,96752.08
2023-05-10T17:49:18.408Z,96764.41
2023-05-10T17:51:48.693Z,96769.81
2023-05-10T17:54:18.766Z,96774.43
2023-05-10T17:56:49.486Z,96777.85
2023-05-10T17:59:20.118Z,96778.77
2023-05-10T18:01:50.374Z,96779.65
2023-05-10T18:04:20.946Z,96774.16
2023-05-10T18:06:51.368Z,96782.46
2023-05-10T18:09:24.143Z,96788.98
2023-05-10T18:11:54.810Z,96797.59
2023-05-10T18:14:36.536Z,96799.96
2023-05-10T18:17:10.262Z,96808.70
2023-05-10T18:19:41.134Z,96814.19
2023-05-10T18:22:12.491Z,96818.37
2023-05-10T18:24:46.685Z,96815.33
2023-05-10T18:27:17.597Z,96813.27
2023-05-10T18:29:48.237Z,96815.27
2023-05-10T18:32:18.692Z,96818.84
2023-05-10T18:34:49.088Z,96820.77
2023-05-10T18:37:20.001Z,96824.27
2023-05-10T18:39:50.433Z,96830.09
2023-05-10T18:42:27.488Z,96830.13
2023-05-10T18:44:58.698Z,96831.20
2023-05-10T18:47:31.101Z,96829.75
2023-05-10T18:50:06.042Z,96825.66
2023-05-10T18:52:37.566Z,96822.77
2023-05-10T18:55:10.133Z,96816.06
2023-05-10T18:57:41.777Z,96815.65
2023-05-10T19:00:14.360Z,96806.29
2023-05-10T19:02:46.424Z,96804.55
2023-05-10T19:05:20.023Z,96808.88
2023-05-10T19:07:57.111Z,96817.73
2023-05-10T19:10:32.502Z,96810.52
2023-05-10T19:13:03.836Z,96808.56
2023-05-10T19:15:34.519Z,96814.86
2023-05-10T19:18:07.974Z,96818.67
2023-05-10T19:20:40.859Z,96822.02
2023-05-10T19:23:17.266Z,96825.19
2023-05-10T19:25:47.888Z,96826.84
2023-05-10T19:28:30.432Z,96828.54
2023-05-10T19:31:10.939Z,96831.17
2023-05-10T19:33:41.701Z,96833.19
2023-05-10T19:36:15.485Z,96829.67
2023-05-10T19:38:53.710Z,96833.33
2023-05-10T19:41:28.195Z,96836.68
2023-05-10T19:44:01.390Z,96844.23
2023-05-10T19:46:34.722Z,96851.30
2023-05-10T19:49:07.668Z,96858.07
2023-05-10T19:51:43.542Z,96854.16
2023-05-10T19:54:25.422Z,96860.58
2023-05-10T19:57:01.575Z,96858.20
2023-05-10T19:59:37.355Z,96856.91
2023-05-10T20:02:10.668Z,96859.67
2023-05-10T20:04:44.579Z,96862.75
2023-05-10T20:07:25.488Z,96862.73
2023-05-10T20:10:00.117Z,96864.00
2023-05-10T20:12:49.632Z,96867.74
2023-05-10T20:15:22.741Z,96874.22
2023-05-10T20:17:56.170Z,96869.70
2023-05-10T20:20:27.689Z,96862.49
2023-05-10T20:22:58.346Z,96863.30
2023-05-10T20:25:31.226Z,96866.06
2023-05-10T20:28:05.494Z,96867.84
2023-05-10T20:30:36.429Z,96864.95
2023-05-10T20:33:06.805Z,96866.60
2023-05-10T20:35:37.122Z,96869.14
2023-05-10T20:38:08.702Z,96868.19
2023-05-10T20:40:39.703Z,96860.48
2023-05-10T20:43:10.145Z,96859.46
2023-05-10T20:45:40.621Z,96864.50
2023-05-10T20:48:10.969Z,96873.95
2023-05-10T20:50:44.383Z,96879.29
2023-05-10T20:53:21.141Z,96873.95
2023-05-10T20:55:51.737Z,96872.52
2023-05-10T20:58:22.300Z,96870.79
2023-05-10T21:00:52.696Z,96871.76
2023-05-10T21:03:22.914Z,96873.42
2023-05-10T21:05:53.626Z,96873.52
2023-05-10T21:08:24.012Z,96879.06
2023-05-10T21:10:55.862Z,96878.45
2023-05-10T21:13:26.244Z,96879.96
2023-05-10T21:15:57.417Z,96878.88
2023-05-10T21:18:30.232Z,96873.79
2023-05-10T21:21:06.761Z,96867.19
2023-05-10T21:23:37.792Z,96860.54
2023-05-10T21:26:13.811Z,96858.34
2023-05-10T21:28:47.034Z,96862.20
2023-05-10T21:31:18.360Z,96864.91
2023-05-10T21:33:49.284Z,96861.15
2023-05-10T21:36:24.635Z,96850.15
2023-05-10T21:39:04.469Z,96845.30
2023-05-10T21:41:38.461Z,96848.45
2023-05-10T21:44:11.276Z,96854.20
2023-05-10T21:46:43.963Z,96854.88
2023-05-10T21:49:16.354Z,96854.07
2023-05-10T21:51:48.556Z,96859.92
2023-05-10T21:54:19.809Z,96863.35
2023-05-10T21:56:50.471Z,96859.61
2023-05-10T21:59:22.045Z,96859.83
2023-05-10T22:01:54.609Z,96855.77
2023-05-10T22:04:25.518Z,96851.67
2023-05-10T22:06:56.329Z,96854.85
2023-05-10T22:09:28.579Z,96854.75
2023-05-10T22:11:59.473Z,96847.45
2023-05-10T22:14:30.816Z,96850.19
2023-05-10T22:17:01.798Z,96851.42
2023-05-10T22:19:32.295Z,96844.80
2023-05-10T22:22:03.203Z,96840.88
2023-05-10T22:24:33.732Z,96842.46
2023-05-10T22:27:06.569Z,96840.23
2023-05-10T22:29:40.518Z,96838.52
2023-05-10T22:32:15.801Z,96836.19
2023-05-10T22:34:46.285Z,96838.27
2023-05-10T22:37:17.603Z,96835.94
2023-05-10T22:39:48.204Z,96835.12
2023-05-10T22:42:18.727Z,96833.95
2023-05-10T22:44:48.922Z,96834.09
2023-05-10T22:47:19.376Z,96836.46
2023-05-10T22:49:49.614Z,96834.46
2023-05-10T22:52:19.940Z,96833.48
2023-05-10T22:54:50.851Z,96835.02
2023-05-10T22:57:21.198Z,96837.46
2023-05-10T22:59:52.103Z,96834.75
2023-05-10T23:02:23.030Z,96824.75
2023-05-10T23:04:54.568Z,96826.64
2023-05-10T23:07:25.848Z,96824.88
2023-05-10T23:09:56.755Z,96823.00
2023-05-10T23:12:27.372Z,96819.67
2023-05-10T23:14:57.895Z,96825.88
2023-05-10T23:17:28.255Z,96828.94
2023-05-10T23:19:59.437Z,96829.70
2023-05-10T23:22:30.214Z,96827.59
2023-05-10T23:25:01.333Z,96834.25
2023-05-10T23:27:35.159Z,96837.09
2023-05-10T23:30:07.914Z,96832.39
2023-05-10T23:32:39.440Z,96827.25
2023-05-10T23:35:12.129Z,96829.59
2023-05-10T23:37:43.041Z,96836.15
2023-05-10T23:40:15.398Z,96836.05
2023-05-10T23:42:46.409Z,96834.55
2023-05-10T23:45:16.770Z,96840.34
2023-05-10T23:47:47.175Z,96840.38
2023-05-10T23:50:18.164Z,96840.41
2023-05-10T23:52:48.803Z,96846.52
2023-05-10T23:55:19.350Z,96851.45
2023-05-10T23:57:49.823Z,96849.48
